Terminal Aerodrome Forecast
Issued by NWS Dallas/Fort Worth, TX

Home | Current Version | Previous Version | Text Only | Print | Product List | Glossary On
Versions: 1 2 3 4 5 6 7 8 9 10 11 12 13 14 15 16 17 18 19 20 21 22 23 24 25 26 27 28 29 30 31 32 33 34 35
000
FTUS44 KFWD 191300 AAA
TAFACT
TAF AMD
KACT 191346Z 1914/2012 01004KT 5SM -RA BR OVC006
     FM191600 02006KT P6SM BKN009
     FM191800 03008KT 5SM BR BKN012
     FM200800 36004KT 3SM BR OVC008=

USA.gov is the U.S. government's official web portal to all federal, state and local government web resources and services.